Terminal Aerodrome Forecast
Issued by NWS Omaha/Valley, NE

Home | Current Version | Previous Version | Text Only | Print | Product List | Glossary Off
Versions: 1 2 3 4 5 6 7 8 9 10 11 12 13 14 15 16 17 18 19 20 21 22 23 24 25 26 27 28 29 30 31 32 33 34 35 36 37 38

000
FTUS43 KOAX 261327 AAA
TAFOFK
TAF AMD
KOFK 261327Z 2613/2712 32020G30KT P6SM OVC015
      TEMPO 2613/2615 5SM -SN BKN008 OVC015
     FM261500 33022G32KT P6SM OVC015
      TEMPO 2615/2618 6SM -SN OVC010
     FM262000 34019G27KT P6SM SCT025 BKN050
     FM262300 35010KT P6SM SCT030 BKN250
     FM270500 34004KT P6SM BKN040=

USA.gov is the U.S. government's official web portal to all federal, state and local government web resources and services.